Time;durP1;ratioP1;P1;durP2;ratioP2;P2;SDS_P1;SDS_P2;PMS_P1;PMS_P2;Temp;Humidity;BMP_temperature;BMP_pressure;BME280_temperature;BME280_humidity;BME280_pressure;Samples;Min_cycle;Max_cycle;Signal;HPM_P1;HPM_P2
2023/03/20 00:01:27;;;;;;;15.80;7.25;;;8.80;99.90;;;;;;5092498;28;20055;-50
2023/03/20 00:03:54;;;;;;;11.48;7.53;;;8.80;99.90;;;;;;5107883;28;20163;-50
2023/03/20 00:06:23;;;;;;;14.13;7.22;;;8.80;99.90;;;;;;5110431;28;20039;-50
2023/03/20 00:08:52;;;;;;;14.70;7.95;;;8.80;99.90;;;;;;5092575;28;20051;-50
2023/03/20 00:11:30;;;;;;;11.45;7.28;;;8.80;99.90;;;;;;5094522;28;20078;-50
2023/03/20 00:14:00;;;;;;;14.48;8.73;;;8.80;99.90;;;;;;5094813;28;20048;-50
2023/03/20 00:16:33;;;;;;;13.38;7.65;;;8.80;99.90;;;;;;5096353;28;20039;-50
2023/03/20 00:18:59;;;;;;;14.38;7.55;;;8.80;99.90;;;;;;5114657;28;20644;-51
2023/03/20 00:21:26;;;;;;;17.15;8.02;;;8.80;99.90;;;;;;5095583;28;20071;-49
2023/03/20 00:23:54;;;;;;;11.23;6.72;;;8.80;99.90;;;;;;5115136;28;20126;-51
2023/03/20 00:26:25;;;;;;;12.98;7.20;;;8.80;99.90;;;;;;5099927;28;20043;-52
2023/03/20 00:28:52;;;;;;;14.23;7.40;;;8.80;99.90;;;;;;5114466;28;20048;-51
2023/03/20 00:31:33;;;;;;;9.70;6.05;;;8.80;99.90;;;;;;5095871;28;20065;-49
2023/03/20 00:34:02;;;;;;;14.90;7.55;;;8.80;99.90;;;;;;5099563;28;20040;-49
2023/03/20 00:36:29;;;;;;;7.90;5.32;;;8.80;99.90;;;;;;5090015;28;20036;-50
2023/03/20 00:38:58;;;;;;;10.98;5.50;;;8.80;99.90;;;;;;5093079;28;20058;-50
2023/03/20 00:41:38;;;;;;;10.85;6.07;;;8.80;99.90;;;;;;5094460;28;20036;-50
2023/03/20 00:44:23;;;;;;;10.70;6.30;;;8.80;99.90;;;;;;5083819;28;20110;-49
2023/03/20 00:46:54;;;;;;;8.88;6.13;;;8.80;99.90;;;;;;5113231;28;20071;-49
2023/03/20 00:49:31;;;;;;;11.95;6.43;;;8.10;99.90;;;;;;5086048;28;20573;-49
2023/03/20 00:52:00;;;;;;;12.45;6.65;;;8.80;99.90;;;;;;5096300;28;20043;-50
2023/03/20 00:54:27;;;;;;;14.50;6.85;;;8.80;99.90;;;;;;5095344;28;20051;-50
2023/03/20 00:57:01;;;;;;;11.77;6.68;;;8.80;99.90;;;;;;5104889;28;20036;-50
2023/03/20 00:59:32;;;;;;;12.30;6.75;;;8.80;99.90;;;;;;5107708;22;20044;-51
2023/03/20 01:02:01;;;;;;;10.00;6.47;;;8.80;99.90;;;;;;5091419;28;20106;-50
2023/03/20 01:04:40;;;;;;;12.65;6.93;;;8.80;99.90;;;;;;5092609;28;20118;-50
2023/03/20 01:07:12;;;;;;;13.48;6.97;;;8.70;99.90;;;;;;5095893;28;20076;-50
2023/03/20 01:09:39;;;;;;;9.55;6.30;;;8.70;99.90;;;;;;5113392;28;20075;-50
2023/03/20 01:12:09;;;;;;;11.93;7.82;;;8.70;99.90;;;;;;5113164;28;20094;-54
2023/03/20 01:14:36;;;;;;;9.90;6.53;;;8.70;99.90;;;;;;5112551;28;20036;-50
2023/03/20 01:17:03;;;;;;;13.45;7.93;;;8.70;99.90;;;;;;5103028;28;20060;-52
2023/03/20 01:19:30;;;;;;;13.02;8.57;;;8.70;99.90;;;;;;5115379;27;20069;-50
2023/03/20 01:21:57;;;;;;;15.00;9.07;;;8.70;99.90;;;;;;5134002;27;20043;-51
2023/03/20 01:24:23;;;;;;;15.73;9.05;;;8.70;99.90;;;;;;5134714;27;20073;-51
2023/03/20 01:26:51;;;;;;;13.60;8.57;;;8.70;99.90;;;;;;5118593;27;20110;-50
2023/03/20 01:29:19;;;;;;;12.35;7.78;;;8.70;99.90;;;;;;5113477;28;20118;-52
2023/03/20 01:31:48;;;;;;;15.07;7.90;;;8.70;99.90;;;;;;5094910;28;20043;-50
2023/03/20 01:34:17;;;;;;;11.85;7.65;;;8.70;99.90;;;;;;5094797;28;20047;-53
2023/03/20 01:36:56;;;;;;;14.98;8.07;;;8.70;99.90;;;;;;5096126;28;20051;-50
2023/03/20 01:39:32;;;;;;;11.43;6.50;;;8.70;99.90;;;;;;5094248;28;20516;-51
2023/03/20 01:41:59;;;;;;;10.60;6.53;;;8.70;99.90;;;;;;5095262;28;20461;-51
2023/03/20 01:44:30;;;;;;;12.27;7.05;;;8.70;99.90;;;;;;5093911;28;20130;-52
2023/03/20 01:47:00;;;;;;;12.90;6.90;;;8.70;99.90;;;;;;5094908;28;20043;-51
2023/03/20 01:49:27;;;;;;;12.88;6.90;;;8.70;99.90;;;;;;5093864;28;20052;-53
2023/03/20 01:51:57;;;;;;;10.25;7.15;;;8.70;99.90;;;;;;5093479;28;20051;-52
2023/03/20 01:54:31;;;;;;;17.00;7.70;;;8.60;99.90;;;;;;5095294;28;20027;-53
2023/03/20 01:57:15;;;;;;;11.02;7.53;;;8.60;99.90;;;;;;5094236;28;20051;-50
2023/03/20 01:59:57;;;;;;;12.43;7.00;;;8.60;99.90;;;;;;5094773;28;20159;-53
2023/03/20 02:02:27;;;;;;;11.82;6.63;;;8.60;99.90;;;;;;5102857;28;20385;-50
2023/03/20 02:04:59;;;;;;;13.02;7.82;;;8.50;99.90;;;;;;5094577;28;20105;-50
2023/03/20 02:07:27;;;;;;;18.85;11.10;;;8.60;99.90;;;;;;5094415;28;20078;-50
2023/03/20 02:10:02;;;;;;;17.08;11.77;;;8.60;99.90;;;;;;5093121;28;20056;-50
2023/03/20 02:12:41;;;;;;;27.30;12.90;;;8.60;99.90;;;;;;5093853;28;20124;-51
2023/03/20 02:15:12;;;;;;;20.63;11.38;;;8.60;99.90;;;;;;5094912;28;20452;-53
2023/03/20 02:17:54;;;;;;;21.05;12.32;;;8.60;99.90;;;;;;5095951;28;20143;-50
2023/03/20 02:20:27;;;;;;;19.60;11.85;;;8.60;99.90;;;;;;5112493;28;20040;-49
2023/03/20 02:23:06;;;;;;;25.30;12.32;;;8.60;99.90;;;;;;5093985;28;20050;-50
2023/03/20 02:26:08;;;;;;;19.70;12.30;;;8.60;99.90;;;;;;5093902;28;20036;-51
2023/03/20 02:28:58;;;;;;;22.42;11.10;;;8.60;99.90;;;;;;5094128;28;20097;-50
2023/03/20 02:31:44;;;;;;;14.88;10.00;;;8.60;99.90;;;;;;5093183;28;20105;-50
2023/03/20 02:34:53;;;;;;;17.02;9.25;;;8.60;99.90;;;;;;5092236;28;20523;-53
2023/03/20 02:37:40;;;;;;;12.82;8.75;;;8.60;99.90;;;;;;5128035;27;20044;-54
2023/03/20 02:40:32;;;;;;;16.15;8.73;;;8.60;99.90;;;;;;5097215;28;20055;-53
2023/03/20 02:43:13;;;;;;;14.15;8.77;;;8.60;99.90;;;;;;5088518;28;20071;-50
2023/03/20 02:45:50;;;;;;;15.00;8.25;;;8.60;99.90;;;;;;5105325;27;20047;-54
2023/03/20 02:48:22;;;;;;;13.88;8.80;;;8.50;99.90;;;;;;5094258;28;20521;-54
2023/03/20 02:51:11;;;;;;;17.95;8.93;;;8.60;99.90;;;;;;5093844;28;20051;-50
2023/03/20 02:53:53;;;;;;;11.73;7.95;;;8.50;99.90;;;;;;5093958;28;20048;-52
2023/03/20 02:56:31;;;;;;;12.88;9.10;;;8.60;99.90;;;;;;5092779;28;20036;-52
2023/03/20 02:59:24;;;;;;;16.92;10.00;;;8.60;99.90;;;;;;5092743;28;20039;-49
2023/03/20 03:01:55;;;;;;;15.35;9.15;;;8.50;99.90;;;;;;5112462;28;20047;-51
2023/03/20 03:04:28;;;;;;;13.43;8.80;;;8.50;99.90;;;;;;5093935;28;20039;-52
2023/03/20 03:06:57;;;;;;;16.13;9.98;;;8.50;99.90;;;;;;5105288;28;20036;-50
2023/03/20 03:09:45;;;;;;;16.33;9.68;;;8.60;99.90;;;;;;5093191;28;20496;-50
2023/03/20 03:12:18;;;;;;;16.43;8.57;;;8.50;99.90;;;;;;5092301;28;20047;-50
2023/03/20 03:14:55;;;;;;;15.73;8.85;;;8.60;99.90;;;;;;5111659;28;20331;-52
2023/03/20 03:17:25;;;;;;;15.25;8.77;;;8.60;99.90;;;;;;5093083;28;20061;-51
2023/03/20 03:20:09;;;;;;;16.52;9.75;;;8.60;99.90;;;;;;5100931;27;20035;-50
2023/03/20 03:22:35;;;;;;;17.35;9.50;;;8.60;99.90;;;;;;5067833;28;20492;-50
2023/03/20 03:25:05;;;;;;;16.08;9.45;;;8.50;99.90;;;;;;5091653;28;20043;-50
2023/03/20 03:27:39;;;;;;;14.93;9.20;;;8.50;99.90;;;;;;5092723;28;20535;-56
2023/03/20 03:30:17;;;;;;;14.90;10.00;;;8.50;99.90;;;;;;5092210;28;20058;-51
2023/03/20 03:32:59;;;;;;;18.00;9.73;;;8.50;99.90;;;;;;5102296;28;20040;-52
2023/03/20 03:35:26;;;;;;;18.10;9.65;;;8.50;99.90;;;;;;5072877;28;20496;-54
2023/03/20 03:38:10;;;;;;;13.02;9.40;;;8.50;99.90;;;;;;5110952;28;20039;-52
2023/03/20 03:40:50;;;;;;;16.80;9.63;;;8.50;99.90;;;;;;5083576;28;20043;-50
2023/03/20 03:43:32;;;;;;;17.45;9.93;;;8.40;99.90;;;;;;5119850;28;20043;-51
2023/03/20 03:46:06;;;;;;;15.27;10.18;;;8.40;99.90;;;;;;5095789;28;20452;-51
2023/03/20 03:48:43;;;;;;;15.73;9.32;;;8.40;99.90;;;;;;5111314;28;20114;-50
2023/03/20 03:51:20;;;;;;;16.05;9.52;;;8.30;99.90;;;;;;5092177;28;20053;-52
2023/03/20 03:54:04;;;;;;;14.93;9.18;;;8.40;99.90;;;;;;5090189;28;20051;-50
2023/03/20 03:56:33;;;;;;;16.48;9.70;;;8.40;99.90;;;;;;5092317;28;20050;-54
2023/03/20 03:59:07;;;;;;;14.90;9.25;;;8.40;99.90;;;;;;5091214;28;20097;-51
2023/03/20 04:01:35;;;;;;;15.55;9.95;;;8.40;99.90;;;;;;5111096;28;20039;-53
2023/03/20 04:04:09;;;;;;;15.50;10.52;;;8.40;99.90;;;;;;5075681;28;20093;-52
2023/03/20 04:06:36;;;;;;;15.60;9.77;;;8.40;99.90;;;;;;5116516;28;20457;-51
2023/03/20 04:09:05;;;;;;;18.15;10.43;;;8.50;99.90;;;;;;5090253;28;20048;-53
2023/03/20 04:11:31;;;;;;;17.38;11.18;;;8.40;99.90;;;;;;5102772;28;20040;-51
2023/03/20 04:13:58;;;;;;;17.35;10.30;;;8.50;99.90;;;;;;5100808;28;20125;-52
2023/03/20 04:16:25;;;;;;;17.15;9.98;;;8.40;99.90;;;;;;5092843;28;20043;-53
2023/03/20 04:18:54;;;;;;;15.35;9.13;;;8.50;99.90;;;;;;5090178;28;20040;-52
2023/03/20 04:21:21;;;;;;;15.73;8.85;;;8.50;99.90;;;;;;5092093;28;20516;-50
2023/03/20 04:23:50;;;;;;;13.88;9.52;;;8.50;99.90;;;;;;5085814;28;20066;-51
2023/03/20 04:26:21;;;;;;;17.50;9.63;;;8.50;99.90;;;;;;5083953;28;20131;-51
2023/03/20 04:28:49;;;;;;;13.23;9.20;;;8.50;99.90;;;;;;5086095;28;20046;-53
2023/03/20 04:31:32;;;;;;;15.35;10.75;;;8.50;99.90;;;;;;5086553;28;20075;-53
2023/03/20 04:34:34;;;;;;;20.30;11.05;;;8.50;99.90;;;;;;5089767;28;20113;-50
2023/03/20 04:37:07;;;;;;;13.75;10.27;;;8.50;99.90;;;;;;5091259;28;20445;-52
2023/03/20 04:39:45;;;;;;;17.25;10.57;;;8.50;99.90;;;;;;5080003;28;20566;-53
2023/03/20 04:42:12;;;;;;;13.80;10.38;;;8.50;99.90;;;;;;5080211;28;20040;-52
2023/03/20 04:44:39;;;;;;;12.68;8.45;;;8.50;99.90;;;;;;5105997;28;20039;-53
2023/03/20 04:47:06;;;;;;;14.27;9.00;;;8.50;99.90;;;;;;5088140;28;20093;-51
2023/03/20 04:49:37;;;;;;;16.65;8.82;;;8.40;99.90;;;;;;5079861;28;20474;-55
2023/03/20 04:52:04;;;;;;;18.10;11.55;;;8.40;99.90;;;;;;5090390;28;20113;-50
2023/03/20 04:54:40;;;;;;;15.60;10.63;;;8.40;99.90;;;;;;5090239;28;20067;-51
2023/03/20 04:57:07;;;;;;;16.00;9.60;;;8.40;99.90;;;;;;5091198;28;20444;-54
2023/03/20 04:59:35;;;;;;;18.75;10.40;;;8.40;99.90;;;;;;5084107;28;20036;-54
2023/03/20 05:02:02;;;;;;;15.23;10.20;;;8.40;99.90;;;;;;5093899;28;20109;-53
2023/03/20 05:04:28;;;;;;;19.83;10.43;;;8.40;99.90;;;;;;5111517;28;20122;-51
2023/03/20 05:06:56;;;;;;;16.23;10.85;;;8.40;99.90;;;;;;5085849;28;20507;-52
2023/03/20 05:09:28;;;;;;;18.75;11.05;;;8.30;99.90;;;;;;5090644;28;20393;-55
2023/03/20 05:11:59;;;;;;;20.92;12.23;;;8.40;99.90;;;;;;5084956;28;20101;-50
2023/03/20 05:14:41;;;;;;;17.02;11.45;;;8.30;99.90;;;;;;5075053;28;20054;-52
2023/03/20 05:17:26;;;;;;;20.25;11.82;;;8.30;99.90;;;;;;5112653;28;20066;-51
2023/03/20 05:20:24;;;;;;;19.50;11.80;;;8.40;99.90;;;;;;5095279;28;20050;-50
2023/03/20 05:23:07;;;;;;;20.63;12.18;;;8.40;99.90;;;;;;5096677;28;20395;-52
2023/03/20 05:25:48;;;;;;;21.08;13.25;;;8.40;99.90;;;;;;5080294;28;20044;-53
2023/03/20 05:28:41;;;;;;;16.80;12.13;;;8.40;99.90;;;;;;5079890;28;20062;-50
2023/03/20 05:31:29;;;;;;;21.63;12.20;;;8.40;99.90;;;;;;5094993;28;20047;-56
2023/03/20 05:34:05;;;;;;;23.05;11.60;;;8.40;99.90;;;;;;5085555;28;20076;-54
2023/03/20 05:37:01;;;;;;;20.95;11.15;;;8.40;99.90;;;;;;5028577;28;20111;-52
2023/03/20 05:39:53;;;;;;;17.17;11.48;;;8.40;99.90;;;;;;5091070;28;20050;-51
2023/03/20 05:42:46;;;;;;;23.20;12.40;;;8.40;99.90;;;;;;5085984;28;20078;-51
2023/03/20 05:45:30;;;;;;;69.05;15.88;;;8.40;99.90;;;;;;5088039;28;20397;-52
2023/03/20 05:48:20;;;;;;;33.00;12.88;;;8.40;99.90;;;;;;5093204;28;20136;-52
2023/03/20 05:51:06;;;;;;;25.38;11.77;;;8.40;99.90;;;;;;5093752;28;20098;-53
2023/03/20 05:53:48;;;;;;;19.20;12.25;;;8.30;99.90;;;;;;5075830;28;20062;-53
2023/03/20 05:56:50;;;;;;;22.90;12.95;;;8.30;99.90;;;;;;5074693;28;20051;-52
2023/03/20 05:59:33;;;;;;;20.05;12.30;;;8.30;99.90;;;;;;5088183;28;20036;-55
2023/03/20 06:02:16;;;;;;;21.55;12.68;;;8.30;99.90;;;;;;5092746;28;20036;-52
2023/03/20 06:04:51;;;;;;;19.92;12.68;;;8.30;99.90;;;;;;5093900;28;20043;-52
2023/03/20 06:07:24;;;;;;;22.98;13.75;;;8.30;99.90;;;;;;5091170;28;20089;-50
2023/03/20 06:09:59;;;;;;;29.80;14.18;;;8.40;99.90;;;;;;5093645;28;20161;-50
2023/03/20 06:12:26;;;;;;;25.30;14.80;;;8.40;99.90;;;;;;5093563;28;20097;-54
2023/03/20 06:14:53;;;;;;;28.30;14.65;;;8.40;99.90;;;;;;5128105;27;20047;-52
2023/03/20 06:17:21;;;;;;;26.42;14.02;;;8.40;99.90;;;;;;5093325;28;20116;-52
2023/03/20 06:19:52;;;;;;;23.65;15.23;;;8.40;99.90;;;;;;5093874;28;20117;-50
2023/03/20 06:22:19;;;;;;;25.17;13.98;;;8.40;99.90;;;;;;5090358;28;20043;-50
2023/03/20 06:24:46;;;;;;;20.13;13.52;;;8.40;99.90;;;;;;5090443;28;20044;-52
2023/03/20 06:27:13;;;;;;;25.75;13.65;;;8.40;99.90;;;;;;5092675;28;20047;-52
2023/03/20 06:29:41;;;;;;;20.33;13.02;;;8.40;99.90;;;;;;5093298;28;20134;-51
2023/03/20 06:32:16;;;;;;;22.75;13.15;;;8.50;99.90;;;;;;5093607;28;20047;-52
2023/03/20 06:34:46;;;;;;;20.23;13.30;;;8.60;99.90;;;;;;5092319;28;20031;-51
2023/03/20 06:37:13;;;;;;;;;;;8.60;99.90;;;;;;5112657;28;20067;-52
2023/03/20 06:39:40;;;;;;;21.40;14.32;;;8.70;99.90;;;;;;5111326;28;19924;-50
2023/03/20 06:42:11;;;;;;;26.40;14.45;;;8.70;99.90;;;;;;5110984;28;20044;-50
2023/03/20 06:44:41;;;;;;;20.17;13.73;;;8.70;99.90;;;;;;5086250;28;20039;-51
2023/03/20 06:47:13;;;;;;;25.42;14.75;;;8.70;99.90;;;;;;5094099;28;20043;-51
2023/03/20 06:49:40;;;;;;;19.67;13.63;;;8.80;99.90;;;;;;5091502;28;20078;-50
2023/03/20 06:52:13;;;;;;;18.15;13.00;;;8.70;99.90;;;;;;5093842;28;20047;-52
2023/03/20 06:54:40;;;;;;;18.85;12.40;;;8.70;99.90;;;;;;5076118;28;20364;-51
2023/03/20 06:57:08;;;;;;;20.05;12.95;;;8.80;99.90;;;;;;5094084;28;20047;-51
2023/03/20 06:59:35;;;;;;;20.52;12.48;;;8.80;99.90;;;;;;5098510;28;20036;-50
2023/03/20 07:02:02;;;;;;;;;;;8.80;99.90;;;;;;5090608;28;20055;-52
2023/03/20 07:04:30;;;;;;;22.15;12.80;;;8.80;99.90;;;;;;5073678;28;20291;-54
2023/03/20 07:07:00;;;;;;;22.08;12.95;;;8.80;99.90;;;;;;5090137;22;20472;-51
2023/03/20 07:09:26;;;;;;;21.52;15.18;;;8.80;99.90;;;;;;5086455;28;20040;-53
2023/03/20 07:11:54;;;;;;;24.30;14.93;;;8.80;99.90;;;;;;5092799;28;20063;-55
2023/03/20 07:14:22;;;;;;;25.83;16.45;;;8.80;99.90;;;;;;5086741;28;20036;-52
2023/03/20 07:16:55;;;;;;;26.45;16.38;;;8.80;99.90;;;;;;5083567;28;20040;-55
2023/03/20 07:19:22;;;;;;;23.13;15.30;;;8.90;99.90;;;;;;5070425;28;20048;-52
2023/03/20 07:22:00;;;;;;;25.45;16.08;;;8.90;99.90;;;;;;5073655;28;20097;-56
2023/03/20 07:24:31;;;;;;;24.20;15.60;;;8.90;99.90;;;;;;5071612;28;20500;-55
2023/03/20 07:26:58;;;;;;;;;;;8.90;99.90;;;;;;5056206;28;20509;-53
2023/03/20 07:29:25;;;;;;;22.50;14.13;;;8.80;99.90;;;;;;5071389;28;20387;-54
2023/03/20 07:31:54;;;;;;;27.02;14.60;;;8.90;99.90;;;;;;5069636;28;20079;-54
2023/03/20 07:34:28;;;;;;;21.02;14.55;;;8.90;99.90;;;;;;5063100;28;20489;-55
2023/03/20 07:36:55;;;;;;;;;;;8.90;99.90;;;;;;5053633;28;20554;-52
2023/03/20 07:39:22;;;;;;;22.90;14.80;;;8.90;99.90;;;;;;5051537;28;19934;-56
2023/03/20 07:41:59;;;;;;;27.52;15.88;;;9.00;99.90;;;;;;5053653;28;20110;-58
2023/03/20 07:44:42;;;;;;;21.15;14.95;;;8.90;99.90;;;;;;5069909;28;20044;-55
2023/03/20 07:47:10;;;;;;;22.58;15.40;;;8.90;99.90;;;;;;5066737;28;20143;-53
2023/03/20 07:49:37;;;;;;;21.95;15.70;;;8.90;99.90;;;;;;5081487;28;20043;-53
2023/03/20 07:52:06;;;;;;;25.20;15.05;;;8.90;99.90;;;;;;5063559;28;20043;-55
2023/03/20 07:54:33;;;;;;;22.20;14.20;;;8.90;99.90;;;;;;5089034;28;20094;-56
2023/03/20 07:57:00;;;;;;;21.40;13.88;;;8.90;99.90;;;;;;5055755;28;20044;-53
2023/03/20 07:59:27;;;;;;;20.30;13.65;;;8.90;99.90;;;;;;5080144;28;20037;-53
2023/03/20 08:01:53;;;;;;;23.25;12.88;;;9.00;99.90;;;;;;5089136;28;20785;-53
2023/03/20 08:04:21;;;;;;;19.08;12.52;;;9.00;99.90;;;;;;5078772;28;20098;-53
2023/03/20 08:06:49;;;;;;;20.42;11.48;;;9.00;99.90;;;;;;5078556;28;20556;-55
2023/03/20 08:09:17;;;;;;;17.92;11.27;;;9.00;99.90;;;;;;5083066;28;20482;-54
2023/03/20 08:11:44;;;;;;;18.10;11.13;;;9.10;99.90;;;;;;5090091;28;20043;-55
2023/03/20 08:14:11;;;;;;;18.30;12.25;;;9.10;99.90;;;;;;5082957;28;20043;-54
2023/03/20 08:16:38;;;;;;;16.60;10.75;;;9.10;99.90;;;;;;5080891;28;20075;-53
2023/03/20 08:19:05;;;;;;;20.83;13.70;;;9.10;99.90;;;;;;5089796;28;20139;-53
2023/03/20 08:21:32;;;;;;;26.65;15.82;;;9.20;99.90;;;;;;5082227;28;20063;-53
2023/03/20 08:23:59;;;;;;;20.63;12.88;;;9.30;99.90;;;;;;5076420;28;20045;-53
2023/03/20 08:26:26;;;;;;;20.08;11.60;;;9.40;99.90;;;;;;5082021;28;20044;-55
2023/03/20 08:28:53;;;;;;;19.77;10.75;;;9.50;99.90;;;;;;5082418;28;20041;-52
2023/03/20 08:31:19;;;;;;;20.02;11.57;;;9.50;99.90;;;;;;5083995;28;20110;-54
2023/03/20 08:33:47;;;;;;;14.65;10.93;;;9.60;99.90;;;;;;5082828;28;20036;-55
2023/03/20 08:36:14;;;;;;;18.10;10.88;;;9.60;99.90;;;;;;5093905;28;20032;-55
2023/03/20 08:38:42;;;;;;;19.08;12.23;;;9.80;99.90;;;;;;5089256;28;20041;-54
2023/03/20 08:41:09;;;;;;;21.90;11.93;;;9.80;99.90;;;;;;5083121;28;20040;-56
2023/03/20 08:43:35;;;;;;;12.70;10.10;;;9.80;99.90;;;;;;5091290;28;20492;-56
2023/03/20 08:46:03;;;;;;;19.70;11.45;;;9.80;99.90;;;;;;5095576;28;20056;-53
2023/03/20 08:48:29;;;;;;;18.52;11.23;;;9.80;99.90;;;;;;5078100;28;20484;-53
2023/03/20 08:50:56;;;;;;;19.42;11.90;;;9.90;99.90;;;;;;5085132;28;20040;-56
2023/03/20 08:53:23;;;;;;;16.30;9.32;;;9.90;99.90;;;;;;5091083;28;20043;-52
2023/03/20 08:55:51;;;;;;;15.02;8.90;;;9.90;99.90;;;;;;5094102;28;20048;-56
2023/03/20 08:58:19;;;;;;;12.43;8.30;;;10.00;99.90;;;;;;5086255;28;20573;-53
2023/03/20 09:00:46;;;;;;;11.82;8.23;;;10.10;99.90;;;;;;5077597;28;20406;-52
2023/03/20 09:03:18;;;;;;;9.63;6.70;;;10.30;99.90;;;;;;5092991;28;20590;-53
2023/03/20 09:05:51;;;;;;;11.07;7.13;;;10.40;99.90;;;;;;5093169;28;20478;-51
2023/03/20 09:08:18;;;;;;;11.75;7.82;;;10.50;99.90;;;;;;5080257;28;20040;-53
2023/03/20 09:10:47;;;;;;;9.52;6.75;;;10.60;99.90;;;;;;5073413;28;20049;-53
2023/03/20 09:13:17;;;;;;;11.10;7.65;;;10.60;99.90;;;;;;5076748;28;20040;-54
2023/03/20 09:15:54;;;;;;;8.80;6.93;;;10.80;99.90;;;;;;5073770;28;20041;-56
2023/03/20 09:18:22;;;;;;;8.43;5.45;;;11.00;99.90;;;;;;5071776;28;20045;-50
2023/03/20 09:20:49;;;;;;;7.38;5.53;;;11.10;99.90;;;;;;5073427;28;20090;-53
2023/03/20 09:23:17;;;;;;;7.40;5.10;;;11.10;99.90;;;;;;5072816;28;20653;-51
2023/03/20 09:25:44;;;;;;;11.23;5.57;;;11.10;99.90;;;;;;5076788;28;20094;-56
2023/03/20 09:28:10;;;;;;;7.00;5.30;;;11.10;99.90;;;;;;5072796;28;20041;-56
2023/03/20 09:30:37;;;;;;;8.57;5.60;;;11.10;99.90;;;;;;5074579;28;20044;-53
2023/03/20 09:33:05;;;;;;;;;;;11.00;99.90;;;;;;5075388;28;20600;-55
2023/03/20 09:35:32;;;;;;;5.93;4.47;;;11.00;99.90;;;;;;5072763;28;20340;-54
2023/03/20 09:37:59;;;;;;;6.55;5.10;;;11.00;99.90;;;;;;5073075;28;20127;-51
2023/03/20 09:40:53;;;;;;;7.38;5.32;;;11.10;99.90;;;;;;5071672;28;20067;-51
2023/03/20 09:43:44;;;;;;;8.18;5.93;;;11.00;99.90;;;;;;5089900;28;20408;-53
2023/03/20 09:46:35;;;;;;;10.10;5.70;;;10.90;99.90;;;;;;5080836;28;20053;-56
2023/03/20 09:49:28;;;;;;;8.80;6.43;;;10.90;99.90;;;;;;5072526;28;20079;-51
2023/03/20 09:51:58;;;;;;;8.90;5.93;;;11.00;99.90;;;;;;5078015;28;20082;-56
2023/03/20 09:54:35;;;;;;;9.85;6.85;;;11.20;99.90;;;;;;5074888;28;20496;-53
2023/03/20 09:57:26;;;;;;;9.88;6.70;;;11.40;99.90;;;;;;5071138;28;20044;-52
2023/03/20 09:59:57;;;;;;;12.27;6.30;;;11.60;99.90;;;;;;5072109;28;20040;-52
2023/03/20 10:02:51;;;;;;;8.38;5.40;;;11.70;99.90;;;;;;5075291;28;20033;-55
2023/03/20 10:05:24;;;;;;;12.05;6.25;;;11.70;99.90;;;;;;5072724;28;20452;-55
2023/03/20 10:07:56;;;;;;;9.85;5.90;;;11.70;99.90;;;;;;5072541;28;20162;-57
2023/03/20 10:10:45;;;;;;;13.32;6.28;;;11.70;99.90;;;;;;5074815;28;20094;-51
2023/03/20 10:13:44;;;;;;;7.88;4.82;;;11.60;99.90;;;;;;5072813;28;20048;-55
2023/03/20 10:16:35;;;;;;;7.65;5.93;;;11.60;99.90;;;;;;5072200;28;20075;-56
2023/03/20 10:19:20;;;;;;;9.10;5.80;;;11.60;99.90;;;;;;5071220;28;20334;-56
2023/03/20 10:21:49;;;;;;;8.70;5.47;;;11.80;99.90;;;;;;5072631;28;20102;-53
2023/03/20 10:24:27;;;;;;;9.13;5.07;;;11.90;99.90;;;;;;5081199;28;20044;-53
2023/03/20 10:27:00;;;;;;;7.75;4.68;;;12.00;99.90;;;;;;5071938;28;20094;-52
2023/03/20 10:29:41;;;;;;;7.95;4.90;;;12.10;99.90;;;;;;5071690;28;20048;-54
2023/03/20 10:32:19;;;;;;;6.10;4.68;;;12.20;99.90;;;;;;5072072;28;20041;-56
2023/03/20 10:35:01;;;;;;;7.32;4.78;;;12.20;99.90;;;;;;5071245;28;20072;-54
2023/03/20 10:38:06;;;;;;;5.00;4.28;;;12.30;99.90;;;;;;5072284;28;20101;-55
2023/03/20 10:40:36;;;;;;;6.30;4.57;;;12.40;99.90;;;;;;5081275;28;20115;-55
2023/03/20 10:43:35;;;;;;;5.90;4.25;;;12.30;99.90;;;;;;5071894;28;20047;-53
2023/03/20 10:46:18;;;;;;;4.97;4.03;;;12.40;99.90;;;;;;5086746;28;20055;-51
2023/03/20 10:49:07;;;;;;;5.32;4.18;;;12.30;99.90;;;;;;5071484;28;20071;-55
2023/03/20 10:51:53;;;;;;;5.15;3.58;;;12.20;99.90;;;;;;5088921;28;20390;-52
2023/03/20 10:54:27;;;;;;;8.77;4.35;;;12.30;99.90;;;;;;5071714;28;20098;-54
2023/03/20 10:56:57;;;;;;;5.78;4.07;;;12.30;99.90;;;;;;5070778;28;20036;-54
2023/03/20 10:59:49;;;;;;;6.72;4.38;;;12.40;99.90;;;;;;5081017;28;20445;-53
2023/03/20 11:02:20;;;;;;;4.18;3.20;;;12.60;99.90;;;;;;5089188;28;20054;-57
2023/03/20 11:04:47;;;;;;;5.97;3.88;;;12.90;99.90;;;;;;5071654;28;20091;-54
2023/03/20 11:07:18;;;;;;;8.30;3.30;;;13.20;99.90;;;;;;5071261;28;20370;-55
2023/03/20 11:09:45;;;;;;;5.38;3.08;;;13.30;99.90;;;;;;5075576;28;20515;-51
2023/03/20 11:12:18;;;;;;;4.90;3.45;;;13.30;99.90;;;;;;5071988;28;20105;-57
2023/03/20 11:14:45;;;;;;;4.72;2.95;;;13.30;99.90;;;;;;5070279;28;20178;-55
2023/03/20 11:17:12;;;;;;;4.53;2.55;;;13.20;99.90;;;;;;5075339;28;20049;-52
2023/03/20 11:19:40;;;;;;;2.45;2.20;;;13.10;99.90;;;;;;5070939;28;20045;-51
2023/03/20 11:22:27;;;;;;;1.88;1.48;;;13.30;99.90;;;;;;5071313;28;20041;-54
2023/03/20 11:25:03;;;;;;;3.20;1.77;;;13.30;99.90;;;;;;5099159;28;20039;-53
2023/03/20 11:27:33;;;;;;;3.05;1.60;;;13.20;99.90;;;;;;5076722;28;20378;-54
2023/03/20 11:30:04;;;;;;;4.22;1.90;;;13.30;99.90;;;;;;5070916;28;20052;-54
2023/03/20 11:32:39;;;;;;;3.55;1.90;;;13.30;99.90;;;;;;5071193;28;20102;-53
2023/03/20 11:35:30;;;;;;;2.97;2.42;;;13.20;99.90;;;;;;5075665;28;20464;-55
2023/03/20 11:38:14;;;;;;;3.50;2.72;;;13.10;99.90;;;;;;5078773;28;20064;-52
2023/03/20 11:40:41;;;;;;;2.65;2.30;;;13.20;99.90;;;;;;5083152;28;20105;-56
2023/03/20 11:43:20;;;;;;;3.22;2.20;;;13.30;99.90;;;;;;5071153;28;20044;-56
2023/03/20 11:45:53;;;;;;;2.50;1.80;;;13.30;99.90;;;;;;5073474;28;20059;-55
2023/03/20 11:48:25;;;;;;;2.50;2.17;;;13.40;99.90;;;;;;5080368;28;20127;-54
2023/03/20 11:51:07;;;;;;;5.43;2.25;;;13.40;99.90;;;;;;5078868;28;20044;-54
2023/03/20 11:53:46;;;;;;;2.20;1.90;;;13.50;99.90;;;;;;5078754;28;20037;-52
2023/03/20 11:56:22;;;;;;;6.13;1.80;;;13.50;99.90;;;;;;5078577;28;20106;-55
2023/03/20 11:59:13;;;;;;;1.75;1.45;;;13.60;99.90;;;;;;5086957;28;20044;-51
2023/03/20 12:01:45;;;;;;;2.47;1.55;;;13.50;99.90;;;;;;5074713;28;20036;-52
2023/03/20 12:04:17;;;;;;;4.32;1.70;;;13.60;99.90;;;;;;5073644;28;20048;-54
2023/03/20 12:10:50;;;;;;;1.52;0.88;;;13.70;99.90;;;;;;5090998;28;20422;-54
2023/03/20 12:13:32;;;;;;;1.33;1.00;;;13.70;99.90;;;;;;5085512;28;20040;-55
2023/03/20 12:16:11;;;;;;;5.00;1.10;;;13.60;99.90;;;;;;5086538;28;20062;-54
2023/03/20 12:18:50;;;;;;;1.77;1.13;;;13.50;99.90;;;;;;5093641;28;20064;-51
2023/03/20 12:21:32;;;;;;;1.45;1.00;;;13.50;99.90;;;;;;5086556;28;20461;-54
2023/03/20 12:24:00;;;;;;;2.22;1.00;;;13.40;99.90;;;;;;5094096;28;20086;-55
2023/03/20 12:26:45;;;;;;;2.50;1.30;;;13.50;99.90;;;;;;5080040;28;20033;-52
2023/03/20 12:29:37;;;;;;;1.75;1.65;;;13.40;99.90;;;;;;5073777;28;20040;-51
2023/03/20 12:32:05;;;;;;;2.75;1.52;;;13.40;99.90;;;;;;5085406;28;20504;-54
2023/03/20 12:34:42;;;;;;;2.13;1.80;;;13.40;99.90;;;;;;5094841;28;20086;-55
2023/03/20 12:37:10;;;;;;;3.72;1.83;;;13.70;99.90;;;;;;5093795;28;20057;-54
2023/03/20 12:39:42;;;;;;;2.88;1.90;;;14.20;99.90;;;;;;5100563;28;20368;-54
2023/03/20 12:42:18;;;;;;;3.60;1.92;;;14.60;99.90;;;;;;5083351;28;20045;-56
2023/03/20 12:45:08;;;;;;;4.22;2.13;;;14.60;99.90;;;;;;5073935;28;20051;-54
2023/03/20 12:47:50;;;;;;;2.55;2.10;;;14.50;99.90;;;;;;5073867;28;20098;-52
2023/03/20 12:50:34;;;;;;;4.07;2.00;;;14.50;99.90;;;;;;5075443;28;20090;-53
2023/03/20 12:53:29;;;;;;;4.50;2.38;;;14.60;99.90;;;;;;5074113;28;20059;-51
2023/03/20 12:56:18;;;;;;;4.50;2.47;;;14.70;99.90;;;;;;5074205;28;20066;-52
2023/03/20 12:58:56;;;;;;;4.22;1.63;;;14.40;99.90;;;;;;5082704;28;20111;-54
2023/03/20 13:01:36;;;;;;;2.05;1.65;;;14.10;99.90;;;;;;5086729;28;20044;-52
2023/03/20 13:04:27;;;;;;;4.35;1.60;;;13.90;99.90;;;;;;5092659;28;20048;-52
2023/03/20 13:07:03;;;;;;;1.65;1.35;;;13.70;99.90;;;;;;5105239;22;20036;-50
2023/03/20 13:10:05;;;;;;;1.27;1.10;;;13.50;99.90;;;;;;5092654;28;20158;-51
2023/03/20 13:12:36;;;;;;;1.73;0.90;;;13.30;99.90;;;;;;5092135;28;20043;-51
2023/03/20 13:15:41;;;;;;;1.17;0.85;;;13.20;99.90;;;;;;5093368;28;20036;-53
2023/03/20 13:18:38;;;;;;;1.58;1.30;;;13.00;99.90;;;;;;5091917;28;20048;-54
2023/03/20 13:21:11;;;;;;;1.67;1.58;;;12.90;99.90;;;;;;5111156;28;20105;-50
2023/03/20 13:23:41;;;;;;;3.03;1.90;;;12.70;99.90;;;;;;5114169;28;20047;-51
2023/03/20 13:26:19;;;;;;;2.47;2.00;;;12.70;99.90;;;;;;5112922;28;20109;-50
2023/03/20 13:29:10;;;;;;;5.47;1.80;;;12.70;99.90;;;;;;5105386;28;20040;-50